createdAt,value
2019-01-25T00:00:39.407Z,-2.20
2019-01-25T00:05:30.646Z,-2.30
2019-01-25T00:10:24.233Z,-2.10
2019-01-25T00:15:15.711Z,-2.20
2019-01-25T00:20:07.426Z,-2.30
2019-01-25T00:25:00.673Z,-2.20
2019-01-25T00:29:52.125Z,-2.20
2019-01-25T00:34:43.605Z,-2.20
2019-01-25T00:39:37.080Z,-2.20
2019-01-25T00:44:30.765Z,-2.20
2019-01-25T00:49:22.251Z,-2.20
2019-01-25T00:54:15.803Z,-2.20
2019-01-25T00:59:07.281Z,-2.30
2019-01-25T01:03:58.579Z,-2.30
2019-01-25T01:08:50.003Z,-2.60
2019-01-25T01:13:41.365Z,-2.30
2019-01-25T01:18:32.794Z,-2.40
2019-01-25T01:23:24.051Z,-2.30
2019-01-25T01:28:15.508Z,-2.40
2019-01-25T01:33:06.898Z,-2.40
2019-01-25T01:37:58.316Z,-2.50
2019-01-25T01:42:49.645Z,-2.40
2019-01-25T01:47:41.059Z,-2.40
2019-01-25T01:52:32.466Z,-2.50
2019-01-25T01:57:23.873Z,-2.40
2019-01-25T02:02:15.111Z,-2.40
2019-01-25T02:07:06.615Z,-2.40
2019-01-25T02:11:57.927Z,-2.40
2019-01-25T02:16:49.322Z,-2.40
2019-01-25T02:21:42.827Z,-2.40
2019-01-25T02:26:34.349Z,-2.40
2019-01-25T02:31:25.681Z,-2.40
2019-01-25T02:36:17.069Z,-2.50
2019-01-25T02:41:10.603Z,-2.50
2019-01-25T02:46:06.472Z,-2.40
2019-01-25T02:50:58.018Z,-2.40
2019-01-25T02:55:49.392Z,-2.40
2019-01-25T03:00:40.747Z,-2.60
2019-01-25T03:05:32.136Z,-2.60
2019-01-25T03:10:30.022Z,-2.70
2019-01-25T03:15:14.859Z,-2.80
2019-01-25T03:20:06.223Z,-3.00
2019-01-25T03:24:57.699Z,-3.20
2019-01-25T03:29:51.284Z,-3.30
2019-01-25T03:34:42.773Z,-3.40
2019-01-25T03:39:34.008Z,-3.70
2019-01-25T03:44:25.440Z,-4.00
2019-01-25T03:49:16.886Z,-4.30
2019-01-25T03:54:08.203Z,-4.70
2019-01-25T03:58:59.597Z,-5.00
2019-01-25T04:03:51.056Z,-5.20
2019-01-25T04:08:42.397Z,-5.50
2019-01-25T04:13:33.788Z,-5.60
2019-01-25T04:18:27.349Z,-5.60
2019-01-25T04:23:18.845Z,-5.60
2019-01-25T04:28:10.165Z,-5.60
2019-01-25T04:33:01.509Z,-5.60
2019-01-25T04:37:52.888Z,-5.50
2019-01-25T04:42:46.497Z,-5.50
2019-01-25T04:47:38.014Z,-5.40
2019-01-25T04:52:29.365Z,-5.40
2019-01-25T04:57:20.751Z,-5.30
2019-01-25T05:02:12.055Z,-5.30
2019-01-25T05:07:03.474Z,-5.10
2019-01-25T05:11:54.876Z,-5.20
2019-01-25T05:16:46.259Z,-4.90
2019-01-25T05:21:37.580Z,-4.70
2019-01-25T05:26:29.067Z,-4.60
2019-01-25T05:31:20.391Z,-4.60
2019-01-25T05:36:13.968Z,-4.40
2019-01-25T05:41:09.905Z,-4.40
2019-01-25T05:46:01.435Z,-4.20
2019-01-25T05:50:52.727Z,-4.10
2019-01-25T05:55:44.130Z,-4.10
2019-01-25T06:00:35.504Z,-3.90
2019-01-25T06:05:29.044Z,-4.20
2019-01-25T06:10:20.549Z,-3.80
2019-01-25T06:15:11.945Z,-3.80
2019-01-25T06:20:03.313Z,-3.70
2019-01-25T06:24:54.805Z,-3.60
2019-01-25T06:29:46.110Z,-3.50
2019-01-25T06:34:37.467Z,-3.50
2019-01-25T06:39:28.905Z,-3.40
2019-01-25T06:44:20.294Z,-3.40
2019-01-25T06:49:11.630Z,-3.40
2019-01-25T06:54:03.025Z,-3.30
2019-01-25T06:58:54.423Z,-3.30
2019-01-25T07:03:48.009Z,-3.20
2019-01-25T07:08:39.451Z,-3.20
2019-01-25T07:13:33.109Z,-3.00
2019-01-25T07:18:24.566Z,-3.00
2019-01-25T07:23:15.867Z,-3.00
2019-01-25T07:28:07.298Z,-2.90
2019-01-25T07:32:58.762Z,-2.80
2019-01-25T07:37:50.147Z,-2.70
2019-01-25T07:47:41.960Z,-2.50
2019-01-25T07:52:37.793Z,-2.50
2019-01-25T07:57:29.225Z,-2.30
2019-01-25T08:02:20.729Z,-2.20
2019-01-25T08:07:12.000Z,-2.00
2019-01-25T08:12:08.945Z,-1.90
2019-01-25T08:16:56.927Z,-1.70
2019-01-25T08:21:48.532Z,-1.50
2019-01-25T08:26:40.158Z,-1.30
2019-01-25T08:31:33.325Z,-1.20
2019-01-25T08:36:24.828Z,-0.90
2019-01-25T08:41:16.204Z,-0.70
2019-01-25T08:51:03.956Z,-0.50
2019-01-25T08:55:57.189Z,-0.40
2019-01-25T09:00:48.561Z,-0.10
2019-01-25T09:05:39.916Z,0.20
2019-01-25T09:10:31.369Z,0.40
2019-01-25T09:15:24.865Z,0.50
2019-01-25T09:20:16.395Z,0.60
2019-01-25T09:25:09.907Z,0.60
2019-01-25T09:30:01.408Z,0.40
2019-01-25T09:34:52.714Z,0.70
2019-01-25T09:49:26.952Z,1.70
2019-01-25T09:59:11.843Z,1.90
2019-01-25T10:04:03.292Z,1.80
2019-01-25T10:08:54.699Z,2.00
2019-01-25T10:24:00.692Z,2.10
2019-01-25T10:28:51.987Z,2.40
2019-01-25T10:41:35.396Z,2.60
2019-01-25T10:46:26.662Z,2.40
2019-01-25T10:51:18.124Z,2.30
2019-01-25T10:56:09.498Z,2.20
2019-01-25T11:01:01.006Z,2.30
2019-01-25T11:05:52.239Z,2.50
2019-01-25T11:10:43.602Z,2.50
2019-01-25T11:15:35.175Z,2.50
2019-01-25T11:20:26.383Z,2.60
2019-01-25T11:25:17.888Z,2.60
2019-01-25T11:30:11.380Z,3.70
2019-01-25T11:35:02.909Z,3.60
2019-01-25T11:39:54.211Z,4.30
2019-01-25T11:44:45.719Z,5.60
2019-01-25T11:49:36.994Z,5.20
2019-01-25T11:54:28.505Z,5.20
2019-01-25T11:59:19.888Z,5.10
2019-01-25T12:04:11.290Z,4.90
2019-01-25T12:09:02.598Z,4.50
2019-01-25T12:13:53.971Z,3.50
2019-01-25T12:18:45.359Z,3.60
2019-01-25T12:23:36.814Z,3.20
2019-01-25T12:28:28.296Z,3.30
2019-01-25T12:33:19.509Z,3.50
2019-01-25T12:38:13.143Z,3.70
2019-01-25T12:43:04.564Z,3.70
2019-01-25T12:47:55.983Z,3.70
2019-01-25T12:52:47.300Z,3.30
2019-01-25T12:57:38.895Z,3.30
2019-01-25T13:02:30.179Z,3.20
2019-01-25T13:07:21.537Z,3.30
2019-01-25T13:12:12.913Z,3.20
2019-01-25T13:17:04.308Z,3.10
2019-01-25T13:21:55.666Z,3.10
2019-01-25T13:26:47.181Z,3.00
2019-01-25T13:31:38.662Z,3.10
2019-01-25T13:36:29.919Z,2.90
2019-01-25T13:41:21.187Z,2.90
2019-01-25T13:46:12.628Z,2.80
2019-01-25T13:51:03.968Z,2.70
2019-01-25T13:55:55.375Z,2.70
2019-01-25T14:00:46.731Z,2.60
2019-01-25T14:05:40.364Z,2.20
2019-01-25T14:10:31.766Z,2.30
2019-01-25T14:15:23.652Z,1.70
2019-01-25T14:20:14.607Z,1.80
2019-01-25T14:25:06.167Z,1.70
2019-01-25T14:29:59.541Z,1.90
2019-01-25T14:34:51.156Z,1.90
2019-01-25T14:39:44.665Z,1.80
2019-01-25T14:44:36.206Z,1.80
2019-01-25T14:49:27.502Z,1.70
2019-01-25T14:54:18.969Z,1.60
2019-01-25T14:59:10.205Z,1.70
2019-01-25T15:04:01.710Z,1.60
2019-01-25T15:08:53.064Z,1.30
2019-01-25T15:18:35.931Z,1.10
2019-01-25T15:23:29.494Z,1.00
2019-01-25T15:28:20.916Z,1.00
2019-01-25T15:33:13.254Z,0.80
2019-01-25T15:38:03.669Z,0.80
2019-01-25T15:42:55.138Z,0.80
2019-01-25T15:47:46.432Z,0.80
2019-01-25T15:52:37.954Z,0.60
2019-01-25T15:57:29.193Z,0.60
2019-01-25T16:02:20.667Z,0.50
2019-01-25T16:07:12.145Z,0.50
2019-01-25T16:12:03.478Z,0.50
2019-01-25T16:16:54.764Z,0.40
2019-01-25T16:21:46.508Z,0.40
2019-01-25T16:26:37.540Z,0.30
2019-01-25T16:31:29.017Z,0.30
2019-01-25T16:36:22.580Z,0.30
2019-01-25T16:41:14.008Z,0.30
2019-01-25T16:46:09.160Z,0.20
2019-01-25T16:51:00.734Z,0.20
2019-01-25T16:55:52.032Z,0.20
2019-01-25T17:00:43.510Z,0.20
2019-01-25T17:05:34.867Z,0.10
2019-01-25T17:10:26.624Z,0.20
2019-01-25T17:20:21.958Z,0.20
2019-01-25T17:25:02.703Z,0.20
2019-01-25T17:29:54.307Z,0.10
2019-01-25T17:34:47.765Z,0.10
2019-01-25T17:39:39.269Z,0.10
2019-01-25T17:44:30.660Z,0.00
2019-01-25T17:49:22.141Z,0.00
2019-01-25T17:54:13.435Z,0.00
2019-01-25T17:59:04.842Z,0.00
2019-01-25T18:03:56.222Z,-0.10
2019-01-25T18:08:47.786Z,-0.10
2019-01-25T18:13:41.262Z,-0.20
2019-01-25T18:18:32.772Z,-0.20
2019-01-25T18:23:25.803Z,-0.30
2019-01-25T18:28:15.670Z,-0.30
2019-01-25T18:33:06.970Z,-0.30
2019-01-25T18:37:58.393Z,-0.40
2019-01-25T18:42:51.956Z,-0.40
2019-01-25T18:47:43.615Z,-0.70
2019-01-25T18:52:36.998Z,-0.40
2019-01-25T18:57:30.681Z,-0.40
2019-01-25T19:02:22.121Z,-0.40
2019-01-25T19:07:13.654Z,-0.40
2019-01-25T19:12:04.933Z,-0.40
2019-01-25T19:16:56.397Z,-0.40
2019-01-25T19:21:47.716Z,-0.40
2019-01-25T19:26:39.241Z,-0.40
2019-01-25T19:31:32.824Z,-0.40
2019-01-25T19:36:24.369Z,-0.40
2019-01-25T19:41:17.852Z,-0.40
2019-01-25T19:46:09.440Z,-0.40
2019-01-25T19:51:00.620Z,-0.50
2019-01-25T19:55:52.341Z,-0.50
2019-01-25T20:05:39.280Z,-0.40
2019-01-25T20:10:30.735Z,-0.30
2019-01-25T20:15:22.107Z,-0.40
2019-01-25T20:20:13.504Z,-0.30
2019-01-25T20:25:05.003Z,-0.40
2019-01-25T20:29:58.534Z,-0.40
2019-01-25T20:34:50.029Z,-0.40
2019-01-25T20:39:41.323Z,-0.40
2019-01-25T20:44:32.911Z,-0.50
2019-01-25T20:49:24.117Z,-0.40
2019-01-25T20:54:15.506Z,-0.40
2019-01-25T20:59:06.915Z,-0.40
2019-01-25T21:03:58.392Z,-0.30
2019-01-25T21:08:51.960Z,-0.40
2019-01-25T21:13:43.538Z,-0.40
2019-01-25T21:18:34.783Z,-0.40
2019-01-25T21:23:26.362Z,-0.30
2019-01-25T21:28:17.596Z,-0.30
2019-01-25T21:33:08.994Z,-0.30
2019-01-25T21:38:00.378Z,-0.30
2019-01-25T21:42:51.808Z,-0.30
2019-01-25T21:47:43.110Z,-0.30
2019-01-25T21:52:34.612Z,-0.30
2019-01-25T21:57:28.091Z,-0.30
2019-01-25T22:02:19.662Z,-0.30
2019-01-25T22:07:11.075Z,-0.30
2019-01-25T22:12:02.311Z,-0.20
2019-01-25T22:16:53.786Z,-0.20
2019-01-25T22:21:45.173Z,-0.30
2019-01-25T22:26:36.533Z,-0.30
2019-01-25T22:31:27.905Z,-0.20
2019-01-25T22:36:19.284Z,-0.20
2019-01-25T22:41:10.846Z,-0.20
2019-01-25T22:46:04.269Z,-0.20
2019-01-25T22:50:57.968Z,-0.10
2019-01-25T22:55:49.425Z,-0.30
2019-01-25T23:00:40.868Z,-0.10
2019-01-25T23:05:34.492Z,-0.10
2019-01-25T23:10:25.991Z,-0.10
2019-01-25T23:15:17.378Z,-0.10
2019-01-25T23:25:00.328Z,-0.20
2019-01-25T23:29:51.560Z,-0.20
2019-01-25T23:34:42.930Z,-0.20
2019-01-25T23:39:34.385Z,-0.20
2019-01-25T23:44:25.754Z,-0.20
2019-01-25T23:49:17.094Z,-0.20
2019-01-25T23:54:08.482Z,-0.20
2019-01-25T23:59:02.125Z,-0.20
